Time;durP1;ratioP1;P1;durP2;ratioP2;P2;SDS_P1;SDS_P2;PMS_P1;PMS_P2;Temp;Humidity;BMP_temperature;BMP_pressure;BME280_temperature;BME280_humidity;BME280_pressure;Samples;Min_cycle;Max_cycle;Signal;HPM_P1;HPM_P2
2021/02/03 00:00:42;;;;;;;;;53.00;41.00;;;;;0.09;86.23;100899.06;3725371;37;20961;-61
2021/02/03 00:03:11;;;;;;;;;47.75;38.75;;;;;0.11;86.30;100898.00;3725457;38;20967;-60
2021/02/03 00:05:43;;;;;;;;;45.00;38.25;;;;;0.10;86.16;100898.13;3725301;37;20960;-61
2021/02/03 00:08:10;;;;;;;;;39.00;30.00;;;;;0.04;85.84;100907.38;3725485;37;20950;-62
2021/02/03 00:10:37;;;;;;;;;51.00;38.75;;;;;-0.01;86.17;100898.91;3725326;37;20939;-62
2021/02/03 00:13:06;;;;;;;;;44.75;34.50;;;;;-0.01;86.13;100898.91;3725170;38;20925;-61
2021/02/03 00:15:37;;;;;;;;;43.25;37.50;;;;;-0.08;85.89;100895.81;3725305;37;20924;-62
2021/02/03 00:18:12;;;;;;;;;44.50;39.25;;;;;-0.13;85.95;100897.09;3725258;37;20912;-62
2021/02/03 00:20:38;;;;;;;;;41.50;35.25;;;;;-0.14;86.10;100898.91;3725469;38;20940;-61
2021/02/03 00:23:09;;;;;;;;;46.50;36.25;;;;;-0.14;85.99;100890.06;3725308;37;20520;-61
2021/02/03 00:25:35;;;;;;;;;49.00;39.25;;;;;-0.28;85.83;100876.88;3725081;37;20916;-61
2021/02/03 00:28:02;;;;;;;;;47.50;38.50;;;;;-0.35;85.55;100887.94;3725169;37;20934;-62
2021/02/03 00:30:32;;;;;;;;;37.75;33.00;;;;;-0.46;85.67;100881.66;3725208;37;20902;-61
2021/02/03 00:32:59;;;;;;;;;44.00;40.75;;;;;-0.53;85.80;100872.41;3725195;37;20923;-61
2021/02/03 00:35:33;;;;;;;;;54.00;39.00;;;;;-0.60;85.87;100882.62;3725075;37;20911;-60
2021/02/03 00:37:59;;;;;;;;;62.25;45.25;;;;;-0.67;86.10;100878.66;3724844;38;20917;-62
2021/02/03 00:40:32;;;;;;;;;62.25;42.00;;;;;-0.69;85.99;100872.59;3725116;38;20893;-63
2021/02/03 00:42:59;;;;;;;;;55.00;44.00;;;;;-0.75;86.20;100859.72;3725242;38;20912;-61
2021/02/03 00:45:27;;;;;;;;;45.75;41.75;;;;;-0.83;85.87;100862.06;3725078;38;21884;-60
2021/02/03 00:47:54;;;;;;;;;42.00;34.00;;;;;-0.89;86.00;100857.16;3725103;37;21880;-60
2021/02/03 00:50:21;;;;;;;;;49.00;39.00;;;;;-0.99;85.76;100854.25;3725083;38;21869;-60
2021/02/03 00:52:59;;;;;;;;;53.25;41.75;;;;;-1.15;85.71;100857.09;3725288;37;21865;-61
2021/02/03 00:56:01;;;;;;;;;44.75;39.25;;;;;-1.12;86.18;100862.22;3725088;37;21867;-62
2021/02/03 00:59:05;;;;;;;;;58.00;43.25;;;;;-1.11;86.05;100874.53;3724808;37;20869;-60
2021/02/03 01:02:06;;;;;;;;;51.00;44.50;;;;;-1.29;86.09;100848.34;3724486;37;21891;-59
2021/02/03 01:04:34;;;;;;;;;52.00;38.00;;;;;-1.31;86.18;100871.47;3724826;38;21886;-61
2021/02/03 01:07:54;;;;;;;;;45.75;39.25;;;;;-1.43;86.29;100889.91;3725339;38;21851;-61
2021/02/03 01:10:43;;;;;;;;;52.25;45.00;;;;;-1.53;86.52;100894.09;3725371;38;21884;-60
2021/02/03 01:13:23;;;;;;;;;35.75;32.50;;;;;-1.58;86.63;100884.75;3725431;38;21868;-61
2021/02/03 01:16:29;;;;;;;;;39.50;33.25;;;;;-1.64;86.39;100870.09;3725331;38;21856;-64
2021/02/03 01:19:22;;;;;;;;;41.50;34.75;;;;;-1.56;86.44;100869.59;3725220;37;21843;-62
2021/02/03 01:22:05;;;;;;;;;47.25;38.50;;;;;-1.60;86.65;100876.03;3725030;37;21829;-60
2021/02/03 01:24:43;;;;;;;;;58.75;42.75;;;;;-1.66;86.55;100866.69;3725221;37;21140;-60
2021/02/03 01:27:31;;;;;;;;;60.50;42.00;;;;;-1.69;86.71;100872.19;3725386;38;21841;-61
2021/02/03 01:30:27;;;;;;;;;52.75;43.00;;;;;-1.74;86.42;100863.66;3725158;37;21834;-61
2021/02/03 01:32:58;;;;;;;;;46.00;38.50;;;;;-1.81;86.64;100844.63;3725186;38;21837;-62
2021/02/03 01:35:54;;;;;;;;;48.75;37.50;;;;;-1.77;86.81;100851.44;3725030;38;21809;-61
2021/02/03 01:38:51;;;;;;;;;51.00;43.00;;;;;-1.72;86.71;100862.59;3725130;38;21825;-62
2021/02/03 01:41:57;;;;;;;;;62.25;46.00;;;;;-1.74;86.77;100864.50;3725166;37;21818;-61
2021/02/03 01:45:01;;;;;;;;;65.00;51.00;;;;;-1.87;86.49;100858.28;3725080;37;21887;-61
2021/02/03 01:47:45;;;;;;;;;48.75;43.75;;;;;-2.07;86.69;100854.22;3725155;37;21873;-61
2021/02/03 01:50:35;;;;;;;;;60.75;43.75;;;;;-2.38;86.31;100812.87;3725080;38;21819;-60
2021/02/03 01:53:16;;;;;;;;;57.00;43.50;;;;;-2.03;86.89;100857.53;3725360;37;21804;-62
2021/02/03 01:56:24;;;;;;;;;49.50;41.00;;;;;-1.96;86.94;100863.31;3725252;38;21811;-60
2021/02/03 01:59:42;;;;;;;;;52.25;41.50;;;;;-2.12;86.91;100831.62;3725107;38;21791;-61
2021/02/03 02:02:27;;;;;;;;;44.25;37.50;;;;;-1.96;86.87;100863.31;3725203;37;21806;-60
2021/02/03 02:05:24;;;;;;;;;50.25;43.75;;;;;-2.04;86.79;100869.94;3725087;37;21784;-62
2021/02/03 02:08:31;;;;;;;;;69.75;51.75;;;;;-2.13;86.47;100874.97;3725299;38;21800;-61
2021/02/03 02:11:16;;;;;;;;;51.00;42.75;;;;;-2.14;86.80;100873.28;3725095;38;21784;-62
2021/02/03 02:14:09;;;;;;;;;47.50;39.50;;;;;-2.24;86.63;100862.38;3725288;37;21779;-61
2021/02/03 02:16:40;;;;;;;;;46.00;36.00;;;;;-2.31;86.86;100865.50;3725208;38;20785;-60
2021/02/03 02:19:53;;;;;;;;;40.25;32.75;;;;;-2.49;86.82;100862.16;3725291;38;21789;-61
2021/02/03 02:23:11;;;;;;;;;47.25;41.00;;;;;-2.76;87.07;100825.81;3725228;37;21785;-61
2021/02/03 02:26:09;;;;;;;;;37.50;27.25;;;;;-2.48;86.92;100864.72;3725129;37;21799;-60
2021/02/03 02:28:45;;;;;;;;;35.25;30.75;;;;;-2.38;87.54;100862.38;3725237;37;21774;-61
2021/02/03 02:32:02;;;;;;;;;42.25;33.00;;;;;-2.41;87.08;100863.41;3725176;37;21746;-60
2021/02/03 02:35:19;;;;;;;;;44.75;38.50;;;;;-2.42;87.06;100861.72;3725291;38;21772;-60
2021/02/03 02:38:23;;;;;;;;;41.25;34.50;;;;;-2.45;86.99;100861.03;3725661;37;21793;-61
2021/02/03 02:41:37;;;;;;;;;41.50;37.00;;;;;-2.63;86.95;100841.00;3725463;38;21789;-62
2021/02/03 02:44:33;;;;;;;;;52.25;40.75;;;;;-2.57;86.79;100867.94;3725344;37;21780;-60
2021/02/03 02:47:40;;;;;;;;;68.00;45.75;;;;;-2.57;86.91;100857.34;3725138;37;21753;-60
2021/02/03 02:50:49;;;;;;;;;70.50;51.50;;;;;-2.88;87.12;100823.06;3725278;38;21788;-60
2021/02/03 02:54:06;;;;;;;;;48.25;38.00;;;;;-2.85;87.51;100821.06;3725193;37;21761;-62
2021/02/03 02:56:57;;;;;;;;;62.25;45.00;;;;;-2.54;87.81;100859.81;3724796;38;21720;-61
2021/02/03 02:59:47;;;;;;;;;53.00;39.75;;;;;-2.52;87.40;100859.72;3725330;37;21710;-61
2021/02/03 03:02:53;;;;;;;;;54.75;43.25;;;;;-2.56;87.07;100853.75;3725217;37;21704;-61
2021/02/03 03:05:44;;;;;;;;;82.50;58.25;;;;;-2.61;87.47;100847.91;3725007;38;21705;-60
2021/02/03 03:08:51;;;;;;;;;77.50;54.50;;;;;-2.59;87.17;100847.78;3725258;37;21713;-60
2021/02/03 03:12:08;;;;;;;;;75.25;55.00;;;;;-2.53;87.77;100847.41;3725177;38;21732;-59
2021/02/03 03:15:04;;;;;;;;;81.25;61.50;;;;;-2.47;87.27;100837.28;3725314;38;21739;-61
2021/02/03 03:18:11;;;;;;;;;72.00;52.25;;;;;-2.41;87.32;100828.97;3725521;37;21795;-60
2021/02/03 03:21:07;;;;;;;;;80.00;56.50;;;;;-2.45;87.33;100827.44;3725280;37;21724;-60
2021/02/03 03:24:08;;;;;;;;;72.75;54.00;;;;;-2.48;87.04;100824.97;3725195;37;21700;-63
2021/02/03 03:27:14;;;;;;;;;76.75;55.50;;;;;-2.48;87.58;100814.38;3725282;37;21671;-60
2021/02/03 03:30:14;;;;;;;;;75.50;53.75;;;;;-2.62;87.42;100779.97;3725093;37;21717;-62
2021/02/03 03:33:28;;;;;;;;;74.00;56.00;;;;;-2.42;87.52;100813.16;3725295;38;21682;-60
2021/02/03 03:36:03;;;;;;;;;69.25;55.75;;;;;-2.50;87.25;100805.66;3725105;38;21687;-61
2021/02/03 03:39:17;;;;;;;;;50.75;26.25;;;;;-2.51;87.30;100814.56;3725208;38;21661;-60
2021/02/03 03:41:56;;;;;;;;;66.75;52.75;;;;;-2.51;87.01;100822.53;3725192;37;21615;-61
2021/02/03 03:44:29;;;;;;;;;71.25;52.25;;;;;-2.55;87.31;100807.75;3725233;37;21662;-60
2021/02/03 03:47:27;;;;;;;;;78.00;52.50;;;;;-2.50;87.41;100805.66;3725212;37;21685;-62
2021/02/03 03:50:29;;;;;;;;;74.25;56.00;;;;;-2.55;87.49;100797.16;3725403;37;21651;-62
2021/02/03 03:53:46;;;;;;;;;77.00;53.75;;;;;-2.95;87.21;100748.41;3725358;37;21667;-61
2021/02/03 03:56:40;;;;;;;;;64.75;49.00;;;;;-2.71;87.22;100807.00;3725153;37;21637;-60
2021/02/03 03:59:26;;;;;;;;;76.25;57.75;;;;;-2.64;87.17;100783.66;3725271;37;21640;-62
2021/02/03 04:02:10;;;;;;;;;80.75;55.50;;;;;-2.70;87.33;100776.94;3725297;38;21661;-61
2021/02/03 04:04:42;;;;;;;;;69.25;52.00;;;;;-2.60;87.40;100787.81;3725242;38;21630;-60
2021/02/03 04:07:38;;;;;;;;;77.75;54.50;;;;;-2.82;87.21;100762.63;3724990;38;21650;-62
2021/02/03 04:10:28;;;;;;;;;74.00;51.00;;;;;-2.77;87.02;100765.84;3724592;38;21635;-60
2021/02/03 04:13:29;;;;;;;;;73.75;56.00;;;;;-2.58;87.42;100778.78;3724963;37;21622;-61
2021/02/03 04:16:12;;;;;;;;;94.75;63.00;;;;;-2.61;87.56;100781.66;3725196;37;21647;-63
2021/02/03 04:18:45;;;;;;;;;88.75;59.25;;;;;-2.73;87.17;100775.31;3725274;37;21628;-62
2021/02/03 04:21:15;;;;;;;;;90.50;66.25;;;;;-2.72;87.25;100778.81;3725245;37;21639;-61
2021/02/03 04:24:22;;;;;;;;;88.00;64.00;;;;;-2.65;87.34;100774.00;3725101;37;21612;-61
2021/02/03 04:27:35;;;;;;;;;91.25;66.00;;;;;-2.59;87.49;100776.25;3725094;38;21644;-63
2021/02/03 04:30:35;;;;;;;;;87.50;63.00;;;;;-2.70;87.29;100763.69;3725098;38;21621;-61
2021/02/03 04:33:45;;;;;;;;;80.25;58.00;;;;;-2.75;87.26;100761.31;3725322;37;21621;-62
2021/02/03 04:36:42;;;;;;;;;86.00;59.25;;;;;-2.65;86.89;100774.84;3725408;37;21626;-60
2021/02/03 04:39:51;;;;;;;;;93.00;68.00;;;;;-2.65;87.23;100788.09;3725141;37;21584;-60
2021/02/03 04:42:54;;;;;;;;;81.00;61.75;;;;;-2.72;87.29;100784.12;3725588;38;18382;-60
2021/02/03 04:45:55;;;;;;;;;76.25;58.25;;;;;-2.76;87.28;100779.94;3725219;37;21594;-62
2021/02/03 04:49:10;;;;;;;;;84.75;61.00;;;;;-3.05;87.08;100734.88;3725204;37;21606;-62
2021/02/03 04:52:39;;;;;;;;;80.50;60.75;;;;;-3.13;86.92;100754.84;3725504;37;21592;-61
2021/02/03 04:55:30;;;;;;;;;80.25;59.25;;;;;-3.00;86.73;100803.44;3725141;37;21583;-60
2021/02/03 04:58:33;;;;;;;;;91.75;69.00;;;;;-3.07;87.43;100800.31;3725355;37;21554;-61
2021/02/03 05:01:54;;;;;;;;;85.75;63.75;;;;;-3.27;87.23;100774.19;3725264;38;21628;-61
2021/02/03 05:05:06;;;;;;;;;79.75;61.75;;;;;-3.33;87.31;100756.88;3725237;37;18341;-61
2021/02/03 05:08:11;;;;;;;;;76.25;57.50;;;;;-3.12;87.22;100802.38;3725180;37;21568;-61
2021/02/03 05:11:16;;;;;;;;;78.00;58.75;;;;;-3.23;87.53;100786.31;3725365;37;21564;-61
2021/02/03 05:14:16;;;;;;;;;71.25;55.75;;;;;-3.22;87.30;100806.53;3725307;37;21567;-60
2021/02/03 05:17:43;;;;;;;;;77.50;61.50;;;;;-3.52;87.35;100782.69;3724983;37;21547;-63
2021/02/03 05:21:09;;;;;;;;;62.50;49.50;;;;;-3.23;87.62;100831.31;3725395;37;21535;-62
2021/02/03 05:24:24;;;;;;;;;75.75;55.00;;;;;-3.15;87.72;100817.63;3725170;37;21540;-61
2021/02/03 05:27:50;;;;;;;;;75.75;60.00;;;;;-3.19;87.65;100802.84;3725120;37;21542;-61
2021/02/03 05:31:03;;;;;;;;;86.25;60.25;;;;;-3.02;87.41;100822.06;3725323;38;21537;-63
2021/02/03 05:34:13;;;;;;;;;80.75;59.00;;;;;-2.93;87.60;100831.28;3725352;37;21676;-62
2021/02/03 05:37:23;;;;;;;;;87.50;65.25;;;;;-2.96;87.24;100820.00;3725213;37;21477;-61
2021/02/03 05:40:39;;;;;;;;;88.50;68.00;;;;;-2.83;87.49;100842.19;3725399;38;18329;-63
2021/02/03 05:43:48;;;;;;;;;99.25;73.50;;;;;-3.15;87.45;100784.06;3725300;37;18344;-62
2021/02/03 05:46:59;;;;;;;;;99.00;73.25;;;;;-2.94;87.43;100812.81;3725232;37;18301;-62
2021/02/03 05:50:02;;;;;;;;;89.75;68.25;;;;;-2.80;87.46;100834.03;3725308;37;18315;-62
2021/02/03 05:53:15;;;;;;;;;100.50;74.00;;;;;-2.83;87.40;100818.34;3725030;37;18314;-65
2021/02/03 05:56:06;;;;;;;;;104.25;77.25;;;;;-2.70;87.57;100827.25;3724678;38;18334;-61
2021/02/03 05:59:04;;;;;;;;;112.00;97.25;;;;;-2.52;87.62;100835.84;3725219;38;18317;-64
2021/02/03 06:02:07;;;;;;;;;112.75;94.00;;;;;-2.53;87.33;100823.56;3724876;38;18263;-61
2021/02/03 06:05:18;;;;;;;;;99.50;73.75;;;;;-2.63;87.29;100802.09;3725479;38;18279;-64
2021/02/03 06:08:32;;;;;;;;;107.00;84.00;;;;;-2.34;87.72;100817.03;3725047;38;18267;-64
2021/02/03 06:11:41;;;;;;;;;101.50;74.25;;;;;-2.10;87.80;100829.72;3725359;37;18303;-61
2021/02/03 06:15:11;;;;;;;;;73.50;58.25;;;;;-1.92;87.63;100812.63;3725330;37;18282;-63
2021/02/03 06:18:46;;;;;;;;;70.00;55.50;;;;;-1.43;88.12;100820.03;3725366;37;21458;-63
2021/02/03 06:21:59;;;;;;;;;85.25;65.75;;;;;-1.22;87.99;100813.31;3725369;38;21470;-63
2021/02/03 06:25:06;;;;;;;;;74.25;53.25;;;;;-1.07;87.79;100808.78;3725390;38;21472;-63
2021/02/03 06:28:08;;;;;;;;;69.00;54.50;;;;;-0.91;88.23;100804.13;3725380;37;21451;-65
2021/02/03 06:31:26;;;;;;;;;66.75;48.25;;;;;-0.78;87.83;100802.31;3725531;37;21445;-65
2021/02/03 06:34:29;;;;;;;;;62.50;47.50;;;;;-0.59;87.76;100796.59;3725545;38;21479;-63
2021/02/03 06:37:34;;;;;;;;;57.00;43.00;;;;;-0.48;87.64;100812.63;3725314;38;21450;-63
2021/02/03 06:40:45;;;;;;;;;65.25;48.25;;;;;-0.43;87.75;100783.06;3725449;37;21407;-64
2021/02/03 06:43:47;;;;;;;;;59.00;43.00;;;;;-0.12;87.86;100811.84;3725217;38;20976;-65
2021/02/03 06:47:02;;;;;;;;;57.25;45.50;;;;;-0.09;87.49;100806.31;3725348;37;21425;-65
2021/02/03 06:50:15;;;;;;;;;59.75;47.50;;;;;0.07;87.25;100823.81;3725478;37;21437;-66
2021/02/03 06:53:18;;;;;;;;;66.25;52.75;;;;;0.23;87.59;100835.06;3725073;38;21405;-64
2021/02/03 06:56:24;;;;;;;;;73.25;52.00;;;;;0.43;87.46;100830.97;3725316;37;21462;-63
2021/02/03 06:59:27;;;;;;;;;65.75;48.00;;;;;0.48;87.29;100848.31;3725501;37;21403;-64
2021/02/03 07:02:29;;;;;;;;;67.50;52.00;;;;;0.46;86.88;100852.06;3725433;37;21405;-66
2021/02/03 07:05:38;;;;;;;;;79.25;58.25;;;;;0.45;87.22;100858.34;3725254;38;21423;-64
2021/02/03 07:08:44;;;;;;;;;80.50;60.25;;;;;0.49;87.22;100850.00;3725335;37;21400;-64
2021/02/03 07:12:09;;;;;;;;;33.75;29.00;;;;;0.62;86.98;100863.25;3723635;38;21394;-64
2021/02/03 07:15:13;;;;;;;;;72.75;59.00;;;;;0.64;87.26;100848.00;3724338;37;21421;-64
2021/02/03 07:18:17;;;;;;;;;71.25;51.25;;;;;0.28;87.18;100799.19;3725470;37;21408;-63
2021/02/03 07:21:41;;;;;;;;;65.75;50.50;;;;;1.17;87.44;100859.12;3725366;38;21399;-63
2021/02/03 07:24:54;;;;;;;;;73.50;53.75;;;;;1.42;87.31;100868.78;3725529;38;21362;-63
2021/02/03 07:28:14;;;;;;;;;70.75;53.50;;;;;1.43;87.09;100822.47;3725641;37;21369;-64
2021/02/03 07:31:17;;;;;;;;;68.25;51.75;;;;;1.88;87.12;100850.91;3725465;37;21319;-63
2021/02/03 07:34:43;;;;;;;;;57.00;45.75;;;;;1.32;87.04;100695.31;3725358;37;21379;-63
2021/02/03 07:37:56;;;;;;;;;56.25;43.50;;;;;2.43;86.86;100858.97;3725400;37;21339;-62
2021/02/03 07:41:11;;;;;;;;;62.75;46.50;;;;;2.56;86.31;100857.87;3725358;37;21376;-63
2021/02/03 07:44:10;;;;;;;;;56.00;42.50;;;;;2.64;86.24;100855.38;3724436;38;21288;-63
2021/02/03 07:46:58;;;;;;;;;52.25;42.25;;;;;2.84;86.32;100853.75;3725086;38;21317;-64
2021/02/03 07:50:01;;;;;;;;;48.00;35.75;;;;;3.06;86.31;100846.63;3725090;37;21322;-63
2021/02/03 07:53:28;;;;;;;;;50.75;38.00;;;;;2.94;85.87;100795.88;3725478;38;21287;-66
2021/02/03 07:56:40;;;;;;;;;41.75;37.75;;;;;2.98;84.99;100797.31;3725370;37;21267;-63
2021/02/03 07:59:48;;;;;;;;;42.50;37.75;;;;;3.14;84.80;100831.62;3726504;37;21317;-62
2021/02/03 08:03:14;;;;;;;;;40.25;36.25;;;;;3.29;85.31;100818.78;3726278;38;21312;-63
2021/02/03 08:06:24;;;;;;;;;49.00;40.25;;;;;3.44;84.42;100825.50;3726509;37;21195;-63
2021/02/03 08:09:29;;;;;;;;;48.50;38.75;;;;;3.56;84.01;100828.94;3725711;38;20972;-65
2021/02/03 08:12:39;;;;;;;;;44.00;37.75;;;;;3.53;84.28;100795.28;3729911;37;21264;-63
2021/02/03 08:16:09;;;;;;;;;50.00;42.25;;;;;3.94;83.71;100817.56;3725653;37;21212;-63
2021/02/03 08:19:47;;;;;;;;;55.50;44.00;;;;;3.96;83.50;100789.69;3726070;38;21278;-65
2021/02/03 08:22:56;;;;;;;;;58.25;47.25;;;;;4.44;82.83;100841.69;3725647;38;21277;-64
2021/02/03 08:26:07;;;;;;;;;60.50;49.00;;;;;4.58;82.23;100827.91;3725535;38;21318;-63
2021/02/03 08:29:09;;;;;;;;;61.75;50.75;;;;;4.61;81.77;100835.66;3725457;37;21277;-61
2021/02/03 08:32:26;;;;;;;;;61.00;49.75;;;;;3.74;80.85;100875.53;3725473;37;21284;-64
2021/02/03 08:35:36;;;;;;;;;65.75;50.00;;;;;4.44;79.89;100825.62;3725511;37;21286;-63
2021/02/03 08:38:51;;;;;;;;;63.25;49.00;;;;;4.55;80.41;100823.66;3725304;37;21277;-63
2021/02/03 08:42:14;;;;;;;;;57.00;46.00;;;;;4.71;79.92;100841.03;3725324;37;21246;-63
2021/02/03 08:45:24;;;;;;;;;66.50;50.75;;;;;4.43;78.69;100797.13;3725179;38;21271;-63
2021/02/03 08:48:40;;;;;;;;;64.00;49.50;;;;;4.56;78.70;100836.09;3725375;37;21281;-64
2021/02/03 08:51:35;;;;;;;;;65.25;50.50;;;;;4.77;77.87;100833.28;3725383;38;21281;-63
2021/02/03 08:54:38;;;;;;;;;63.75;51.50;;;;;4.55;76.94;100825.50;3725276;37;21280;-65
2021/02/03 08:57:33;;;;;;;;;66.00;49.75;;;;;4.27;76.72;100797.66;3725411;37;21244;-63
2021/02/03 09:00:41;;;;;;;;;61.25;50.75;;;;;4.40;76.97;100824.19;3725243;38;21194;-63
2021/02/03 09:03:35;;;;;;;;;58.75;46.25;;;;;4.48;76.89;100813.63;3725389;38;21253;-63
2021/02/03 09:06:43;;;;;;;;;58.75;48.00;;;;;4.56;76.81;100813.78;3725230;37;21247;-64
2021/02/03 09:09:54;;;;;;;;;53.00;42.75;;;;;4.37;76.58;100771.72;3725520;38;21228;-63
2021/02/03 09:12:56;;;;;;;;;41.00;36.25;;;;;4.55;76.45;100809.41;3725405;37;21219;-64
2021/02/03 09:16:00;;;;;;;;;44.75;39.25;;;;;4.39;76.26;100767.06;3725277;38;21136;-64
2021/02/03 09:19:10;;;;;;;;;48.25;40.25;;;;;4.60;76.24;100809.84;3725428;37;21282;-64
2021/02/03 09:22:18;;;;;;;;;40.00;32.75;;;;;4.44;75.28;100799.66;3725343;37;21110;-64
2021/02/03 09:25:07;;;;;;;;;47.50;37.00;;;;;4.53;76.10;100803.34;3725436;37;21108;-64
2021/02/03 09:28:36;;;;;;;;;44.25;38.50;;;;;1.72;75.82;100300.78;3724672;37;21151;-63
2021/02/03 09:32:09;;;;;;;;;44.50;37.25;;;;;5.06;76.12;100798.44;3725455;37;21073;-63
2021/02/03 09:35:15;;;;;;;;;40.50;35.00;;;;;5.06;75.57;100765.38;3725649;37;21117;-64
2021/02/03 09:38:26;;;;;;;;;40.50;34.75;;;;;5.28;75.00;100784.69;3724917;38;21058;-63
2021/02/03 09:41:30;;;;;;;;;31.75;25.00;;;;;5.15;74.00;100783.31;3725372;38;20743;-65
2021/02/03 09:44:28;;;;;;;;;35.50;31.75;;;;;5.00;74.60;100756.06;3725180;37;21069;-64
2021/02/03 09:47:39;;;;;;;;;45.00;34.25;;;;;5.02;74.39;100740.69;3725384;37;21099;-63
2021/02/03 09:50:44;;;;;;;;;30.75;27.50;;;;;5.36;74.28;100769.69;3725366;37;21088;-64
2021/02/03 09:53:37;;;;;;;;;36.50;34.25;;;;;5.57;74.46;100770.34;3725479;38;21109;-65
2021/02/03 09:56:31;;;;;;;;;35.75;31.75;;;;;5.60;74.19;100762.84;3725461;37;21042;-64
2021/02/03 09:59:46;;;;;;;;;36.50;34.25;;;;;5.57;73.97;100768.50;3725332;37;21060;-65
2021/02/03 10:02:58;;;;;;;;;44.50;38.75;;;;;5.44;74.13;100754.56;3725547;37;21029;-64
2021/02/03 10:06:17;;;;;;;;;39.50;35.50;;;;;5.50;74.47;100753.97;3725402;37;21067;-65
2021/02/03 10:09:27;;;;;;;;;36.00;31.50;;;;;5.31;74.04;100768.28;3725460;38;21058;-67
2021/02/03 10:12:47;;;;;;;;;36.00;33.00;;;;;4.95;74.87;100675.19;3725397;37;21071;-66
2021/02/03 10:16:06;;;;;;;;;35.00;26.50;;;;;5.21;74.49;100755.87;3725360;37;21077;-64
2021/02/03 10:19:24;;;;;;;;;28.50;25.75;;;;;4.78;75.29;100735.75;3725453;38;21180;-64
2021/02/03 10:22:29;;;;;;;;;36.00;32.25;;;;;4.85;75.84;100744.09;3725503;37;21039;-65
2021/02/03 10:25:46;;;;;;;;;34.75;30.00;;;;;4.87;76.36;100736.75;3725425;38;20957;-66
2021/02/03 10:29:09;;;;;;;;;43.25;35.75;;;;;4.92;76.60;100710.34;3725390;37;21051;-65
2021/02/03 10:32:15;;;;;;;;;33.75;31.00;;;;;5.03;76.61;100720.06;3725515;38;21066;-65
2021/02/03 10:34:59;;;;;;;;;36.50;28.00;;;;;5.05;76.96;100708.22;3725365;37;21127;-64
2021/02/03 10:37:52;;;;;;;;;42.50;33.50;;;;;5.07;76.93;100689.28;3725262;37;21068;-64
2021/02/03 10:40:57;;;;;;;;;32.75;30.75;;;;;4.98;76.63;100656.12;3725233;38;21035;-63
2021/02/03 10:43:37;;;;;;;;;33.75;30.25;;;;;5.27;76.57;100704.31;3725189;37;21017;-66
2021/02/03 10:46:39;;;;;;;;;37.00;32.50;;;;;5.14;76.77;100671.63;3725226;37;21087;-65
2021/02/03 10:49:45;;;;;;;;;34.50;33.75;;;;;2.26;76.01;100174.94;3725274;38;21010;-63
2021/02/03 10:53:02;;;;;;;;;38.25;34.25;;;;;5.35;76.41;100690.16;3725328;37;20929;-65
2021/02/03 10:55:52;;;;;;;;;37.00;32.75;;;;;5.12;76.29;100662.88;3725474;38;20963;-65
2021/02/03 10:58:42;;;;;;;;;47.25;37.75;;;;;5.10;76.38;100664.84;3725361;37;21032;-65
2021/02/03 11:01:40;;;;;;;;;45.25;36.00;;;;;5.33;77.37;100658.97;3725318;38;21264;-64
2021/02/03 11:04:43;;;;;;;;;41.25;34.25;;;;;5.54;76.99;100649.84;3725280;37;21009;-64
2021/02/03 11:08:05;;;;;;;;;41.50;35.00;;;;;5.65;76.93;100647.81;3725331;38;20983;-63
2021/02/03 11:11:05;;;;;;;;;40.25;35.00;;;;;5.96;77.44;100626.00;3725389;37;21013;-63
2021/02/03 11:14:21;;;;;;;;;62.25;51.25;;;;;5.95;76.34;100630.53;3725423;37;20943;-64
2021/02/03 11:17:38;;;;;;;;;29.50;26.75;;;;;5.63;76.30;100595.25;3725497;38;21048;-63
2021/02/03 11:21:08;;;;;;;;;44.50;36.00;;;;;5.72;75.91;100599.69;3725299;38;21035;-64
2021/02/03 11:24:11;;;;;;;;;31.50;29.25;;;;;6.01;76.55;100631.75;3724193;37;20923;-63
2021/02/03 11:27:34;;;;;;;;;40.75;34.50;;;;;6.16;75.98;100635.59;3725301;37;20949;-65
2021/02/03 11:30:33;;;;;;;;;36.00;33.50;;;;;6.23;75.54;100630.47;3725368;38;20906;-64
2021/02/03 11:33:46;;;;;;;;;38.50;32.25;;;;;6.36;75.33;100638.97;3725381;37;20487;-66
2021/02/03 11:36:50;;;;;;;;;40.00;35.00;;;;;6.12;75.70;100647.66;3725330;37;20926;-64
2021/02/03 11:39:59;;;;;;;;;44.00;35.25;;;;;6.04;75.97;100670.91;3725266;38;20945;-63
2021/02/03 11:43:09;;;;;;;;;34.25;29.25;;;;;6.01;75.91;100637.13;3725302;38;20962;-64
2021/02/03 11:46:27;;;;;;;;;36.75;33.00;;;;;5.80;76.60;100607.81;3725255;38;21312;-62
2021/02/03 11:49:29;;;;;;;;;39.00;35.50;;;;;6.05;76.59;100641.19;3725610;37;20472;-63
2021/02/03 11:52:40;;;;;;;;;36.25;31.25;;;;;5.94;76.37;100609.19;3725474;37;20935;-63
2021/02/03 11:56:04;;;;;;;;;36.25;30.75;;;;;5.97;75.88;100587.38;3725411;38;20929;-65
2021/02/03 11:59:08;;;;;;;;;33.00;28.25;;;;;6.20;75.43;100631.62;3725522;37;21000;-63
2021/02/03 12:02:05;;;;;;;;;35.50;31.75;;;;;6.07;75.72;100609.66;3725401;38;20963;-63
2021/02/03 12:05:08;;;;;;;;;44.50;35.25;;;;;6.33;75.61;100636.59;3725278;37;20928;-62
2021/02/03 12:08:17;;;;;;;;;40.25;35.25;;;;;6.22;76.04;100608.12;3725283;38;20983;-64
2021/02/03 12:11:06;;;;;;;;;43.25;37.00;;;;;6.48;75.84;100643.09;3725551;38;20980;-64
2021/02/03 12:14:10;;;;;;;;;43.25;37.25;;;;;6.59;75.90;100642.88;3725244;38;20926;-65
2021/02/03 12:17:10;;;;;;;;;51.00;38.25;;;;;6.74;76.04;100647.69;3725507;37;20896;-64
2021/02/03 12:20:23;;;;;;;;;37.75;34.75;;;;;6.89;75.78;100649.63;3725248;37;20920;-65
2021/02/03 12:23:25;;;;;;;;;36.25;33.25;;;;;6.92;75.17;100649.31;3725500;38;20924;-65
2021/02/03 12:26:38;;;;;;;;;35.00;33.25;;;;;7.01;75.39;100634.06;3725481;37;20919;-66
2021/02/03 12:30:20;;;;;;;;;40.75;33.75;;;;;6.94;74.42;100622.25;3725567;38;20903;-66
2021/02/03 12:33:30;;;;;;;;;42.50;34.75;;;;;7.21;74.97;100646.31;3724253;37;20899;-63
2021/02/03 12:36:52;;;;;;;;;36.00;32.00;;;;;7.30;73.99;100644.47;3725222;37;20945;-65
2021/02/03 12:40:15;;;;;;;;;38.00;30.00;;;;;7.26;74.42;100610.84;3725328;37;20861;-66
2021/02/03 12:43:47;;;;;;;;;36.25;32.00;;;;;7.42;74.23;100651.28;3725546;37;20847;-65
2021/02/03 12:47:06;;;;;;;;;45.50;34.00;;;;;7.42;73.77;100648.56;3725522;37;20886;-63
2021/02/03 12:50:09;;;;;;;;;41.25;32.25;;;;;7.47;73.87;100645.41;3725463;37;20859;-63
2021/02/03 12:53:11;;;;;;;;;47.50;34.75;;;;;7.46;73.38;100641.03;3725342;37;20893;-63
2021/02/03 12:56:21;;;;;;;;;35.00;33.00;;;;;7.52;73.42;100651.16;3725547;38;20861;-63
2021/02/03 12:59:20;;;;;;;;;39.50;33.75;;;;;7.54;73.71;100646.44;3725574;37;20815;-64
2021/02/03 13:02:43;;;;;;;;;53.00;41.75;;;;;7.22;74.24;100582.56;3725541;38;20836;-64
2021/02/03 13:05:49;;;;;;;;;41.50;36.25;;;;;7.52;73.60;100635.00;3725221;37;20726;-64
2021/02/03 13:08:55;;;;;;;;;38.50;36.50;;;;;7.41;73.41;100625.34;3725206;37;20499;-62
2021/02/03 13:12:04;;;;;;;;;38.75;34.25;;;;;7.41;73.65;100609.19;3725562;38;20828;-64
2021/02/03 13:15:06;;;;;;;;;44.50;36.25;;;;;7.46;73.14;100616.78;3725267;37;20806;-63
2021/02/03 13:18:16;;;;;;;;;52.25;37.50;;;;;7.09;73.15;100552.53;3725333;37;20696;-63
2021/02/03 13:21:23;;;;;;;;;43.50;36.75;;;;;7.55;73.55;100615.81;3725310;37;21833;-64
2021/02/03 13:24:30;;;;;;;;;40.75;35.75;;;;;7.58;73.34;100608.25;3724898;38;20825;-64
2021/02/03 13:27:36;;;;;;;;;33.00;30.75;;;;;7.52;72.96;100603.53;3725186;37;20825;-63
2021/02/03 13:30:42;;;;;;;;;43.75;37.25;;;;;7.40;73.71;100575.19;3725293;37;21792;-66
2021/02/03 13:33:52;;;;;;;;;53.25;40.75;;;;;7.46;72.30;100606.00;3725243;37;21817;-65
2021/02/03 13:37:01;;;;;;;;;52.50;43.25;;;;;7.33;73.41;100606.47;3725192;38;21880;-63
2021/02/03 13:40:04;;;;;;;;;50.25;41.00;;;;;7.24;73.57;100599.37;3725116;37;21776;-61
2021/02/03 13:43:00;;;;;;;;;44.00;38.00;;;;;7.20;73.90;100595.31;3725392;38;21799;-64
2021/02/03 13:46:38;;;;;;;;;50.00;40.00;;;;;7.18;74.26;100590.09;3725196;37;21764;-63
2021/02/03 13:49:27;;;;;;;;;53.00;41.50;;;;;7.11;74.54;100586.37;3725403;38;21762;-64
2021/02/03 13:52:31;;;;;;;;;54.50;43.75;;;;;7.17;74.30;100587.56;3725464;38;21803;-63